Time;durP1;ratioP1;P1;durP2;ratioP2;P2;SDS_P1;SDS_P2;PMS_P1;PMS_P2;Temp;Humidity;BMP_temperature;BMP_pressure;BME280_temperature;BME280_humidity;BME280_pressure;Samples;Min_cycle;Max_cycle;Signal;HPM_P1;HPM_P2
2021/01/09 00:00:24;;;;;;;0.80;0.80;;;;;;;1.89;78.23;92921.84;5112238;28;20095;-44
2021/01/09 00:02:49;;;;;;;1.42;1.23;;;;;;;1.87;78.00;92935.97;5112414;28;20019;-43
2021/01/09 00:05:15;;;;;;;3.67;1.67;;;;;;;1.87;78.71;92949.56;5112268;28;20007;-42
2021/01/09 00:07:40;;;;;;;1.27;1.00;;;;;;;1.82;78.30;92957.78;5112786;28;20019;-43
2021/01/09 00:10:08;;;;;;;1.38;0.80;;;;;;;1.80;78.37;92960.25;5112069;28;20039;-43
2021/01/09 00:12:34;;;;;;;1.75;1.05;;;;;;;1.70;78.67;92948.19;5110072;28;20085;-45
2021/01/09 00:15:00;;;;;;;1.20;0.73;;;;;;;1.88;77.50;92961.19;5112218;28;20029;-43
2021/01/09 00:17:26;;;;;;;0.98;0.70;;;;;;;1.93;77.00;92971.28;5112213;28;20027;-43
2021/01/09 00:19:52;;;;;;;1.67;0.85;;;;;;;1.87;77.35;92976.03;5110143;28;20143;-43
2021/01/09 00:22:17;;;;;;;2.08;0.77;;;;;;;1.91;77.71;92979.22;5106399;28;20488;-44
2021/01/09 00:24:43;;;;;;;0.80;0.60;;;;;;;1.96;77.06;92960.16;5111712;28;20026;-44
2021/01/09 00:27:12;;;;;;;4.20;0.95;;;;;;;1.98;76.56;92970.53;5112126;28;20106;-43
2021/01/09 00:29:41;;;;;;;2.72;1.33;;;;;;;1.97;77.29;92967.06;5112067;28;20043;-43
2021/01/09 00:32:07;;;;;;;1.80;1.25;;;;;;;1.99;77.51;92963.84;5111935;28;20016;-44
2021/01/09 00:34:33;;;;;;;0.60;0.60;;;;;;;1.92;77.97;92967.09;5111813;28;20022;-44
2021/01/09 00:36:59;;;;;;;2.88;1.35;;;;;;;2.09;77.62;92994.97;5112199;28;20026;-44
2021/01/09 00:39:24;;;;;;;2.88;1.92;;;;;;;2.07;77.31;93002.91;5112364;27;20031;-44
2021/01/09 00:41:50;;;;;;;0.88;0.73;;;;;;;2.02;76.87;92996.25;5112299;28;20019;-47
2021/01/09 00:44:16;;;;;;;2.50;1.20;;;;;;;2.02;76.99;92998.22;5112436;28;20023;-48
2021/01/09 00:46:41;;;;;;;2.28;0.80;;;;;;;2.04;76.26;93001.19;5112218;28;20412;-43
2021/01/09 00:49:07;;;;;;;0.73;0.73;;;;;;;2.05;77.01;93005.38;5110374;28;20020;-44
2021/01/09 00:51:32;;;;;;;2.65;1.10;;;;;;;2.05;77.23;92995.25;5111294;28;20480;-44
2021/01/09 00:53:58;;;;;;;3.47;1.40;;;;;;;2.00;77.27;93003.44;5112172;28;20020;-46
2021/01/09 00:56:23;;;;;;;2.80;1.60;;;;;;;2.08;77.16;93004.38;5112066;28;20412;-45
2021/01/09 00:58:49;;;;;;;1.45;1.00;;;;;;;2.06;76.54;92995.97;5111990;28;20020;-45
2021/01/09 01:01:15;;;;;;;0.50;0.50;;;;;;;2.02;76.97;92998.22;5111896;28;20514;-45
2021/01/09 01:03:42;;;;;;;0.98;0.80;;;;;;;1.95;77.16;92979.72;5111980;28;20101;-46
2021/01/09 01:06:09;;;;;;;1.88;0.98;;;;;;;1.87;78.44;92976.78;5111915;28;20027;-46
2021/01/09 01:08:35;;;;;;;3.30;1.63;;;;;;;1.90;77.20;92970.34;5112136;28;20483;-45
2021/01/09 01:11:00;;;;;;;2.00;1.13;;;;;;;1.92;78.20;92961.66;5111666;28;20064;-43
2021/01/09 01:13:26;;;;;;;2.40;1.00;;;;;;;1.99;77.38;92961.84;5111759;28;20035;-44
2021/01/09 01:15:51;;;;;;;2.50;1.02;;;;;;;2.09;77.73;92945.94;5111570;28;20036;-45
2021/01/09 01:18:23;;;;;;;2.45;1.20;;;;;;;2.12;77.29;92958.56;5111852;28;20027;-46
2021/01/09 01:20:49;;;;;;;4.80;1.83;;;;;;;2.06;77.24;92968.72;5111793;28;20106;-47
2021/01/09 01:23:16;;;;;;;3.10;1.80;;;;;;;2.02;77.29;92987.31;5111645;28;20472;-50
2021/01/09 01:25:42;;;;;;;4.25;1.90;;;;;;;2.07;76.94;92992.75;5111736;28;20085;-47
2021/01/09 01:28:07;;;;;;;5.53;2.45;;;;;;;2.08;76.87;93010.56;5111764;28;20027;-49
2021/01/09 01:30:33;;;;;;;3.63;2.30;;;;;;;2.11;76.85;93027.88;5111675;28;20026;-49
2021/01/09 01:32:58;;;;;;;1.80;1.70;;;;;;;2.18;76.77;93021.91;5111709;28;20098;-49
2021/01/09 01:35:23;;;;;;;0.77;0.40;;;;;;;2.17;76.18;93020.41;5115939;28;20023;-49
2021/01/09 01:37:49;;;;;;;1.23;0.93;;;;;;;2.06;76.00;93017.75;5115855;28;20027;-44
2021/01/09 01:40:14;;;;;;;4.18;1.60;;;;;;;2.13;76.25;93009.78;5115922;28;20015;-48
2021/01/09 01:42:40;;;;;;;7.55;2.72;;;;;;;2.08;76.00;93012.56;5114397;28;20428;-48
2021/01/09 01:45:07;;;;;;;3.85;1.75;;;;;;;2.10;75.95;93012.78;5115801;28;20045;-50
2021/01/09 01:47:33;;;;;;;9.85;3.50;;;;;;;2.14;76.41;93005.09;5115646;28;20016;-48
2021/01/09 01:50:00;;;;;;;11.48;5.78;;;;;;;2.06;75.74;92995.97;5115603;28;20039;-47
2021/01/09 01:52:26;;;;;;;13.38;5.30;;;;;;;1.97;75.83;92999.72;5115597;28;20023;-47
2021/01/09 01:54:52;;;;;;;9.00;4.15;;;;;;;1.98;77.31;93003.94;5114367;28;20617;-48
2021/01/09 01:57:17;;;;;;;5.85;2.75;;;;;;;2.03;76.99;93013.31;5115489;28;20015;-47
2021/01/09 01:59:42;;;;;;;1.05;0.60;;;;;;;1.93;76.47;93006.69;5115464;28;20412;-47
2021/01/09 02:02:13;;;;;;;0.70;0.45;;;;;;;1.91;76.95;92999.03;5114466;28;20038;-48
2021/01/09 02:04:39;;;;;;;3.67;2.97;;;;;;;1.92;76.81;93014.13;5114875;28;20028;-51
2021/01/09 02:07:14;;;;;;;4.78;3.85;;;;;;;1.98;76.77;93001.22;5115400;28;20024;-47
2021/01/09 02:09:44;;;;;;;3.83;3.20;;;;;;;1.90;76.88;92983.22;5114050;28;20035;-49
2021/01/09 02:12:17;;;;;;;27.30;13.85;;;;;;;2.01;76.39;92994.03;5114019;28;20053;-50
2021/01/09 02:14:51;;;;;;;14.35;6.43;;;;;;;2.02;74.69;92988.06;5114095;28;20028;-49
2021/01/09 02:17:18;;;;;;;22.55;11.00;;;;;;;1.80;75.70;92988.19;5114073;28;20055;-48
2021/01/09 02:19:44;;;;;;;10.45;5.28;;;;;;;1.78;76.26;92993.41;5096948;28;20404;-49
2021/01/09 02:22:17;;;;;;;10.23;4.55;;;;;;;1.86;76.77;92988.94;5114971;28;20016;-47
2021/01/09 02:24:43;;;;;;;4.80;3.38;;;;;;;1.92;76.77;92989.63;5115102;28;20100;-45
2021/01/09 02:27:09;;;;;;;4.93;2.75;;;;;;;2.02;75.48;92990.78;5114815;28;20031;-46
2021/01/09 02:29:39;;;;;;;4.88;3.20;;;;;;;1.98;76.07;92989.59;5115064;28;20020;-49
2021/01/09 02:32:08;;;;;;;7.97;4.47;;;;;;;1.93;75.87;93003.97;5111715;28;20511;-46
2021/01/09 02:34:40;;;;;;;1.90;1.77;;;;;;;1.95;75.91;92998.78;5113587;28;20055;-49
2021/01/09 02:37:06;;;;;;;1.42;1.10;;;;;;;1.86;76.09;92999.06;5114699;28;20032;-49
2021/01/09 02:39:32;;;;;;;4.40;2.58;;;;;;;1.83;75.76;92991.91;5114560;28;20030;-48
2021/01/09 02:41:58;;;;;;;4.85;2.33;;;;;;;1.88;76.71;93010.19;5113579;28;20503;-48
2021/01/09 02:44:23;;;;;;;7.60;3.28;;;;;;;1.81;76.43;93016.16;5113379;28;20035;-47
2021/01/09 02:46:49;;;;;;;7.00;4.10;;;;;;;1.80;76.54;93020.13;5113682;28;20034;-45
2021/01/09 02:49:14;;;;;;;7.88;3.03;;;;;;;1.83;76.53;93006.25;5114282;28;20020;-45
2021/01/09 02:51:39;;;;;;;9.52;3.55;;;;;;;1.88;76.08;93005.50;5114475;28;20026;-48
2021/01/09 02:54:05;;;;;;;11.73;4.15;;;;;;;1.90;75.89;93000.28;5114127;28;20024;-46
2021/01/09 02:56:30;;;;;;;5.25;2.00;;;;;;;1.87;76.08;92995.84;5113763;28;20030;-46
2021/01/09 02:58:56;;;;;;;3.58;2.10;;;;;;;1.90;75.39;92999.53;5113824;28;20027;-48
2021/01/09 03:01:28;;;;;;;4.35;2.30;;;;;;;1.88;75.66;93000.06;5111749;28;20034;-45
2021/01/09 03:03:54;;;;;;;4.40;2.13;;;;;;;1.80;75.81;92996.38;5100439;28;20820;-44
2021/01/09 03:06:19;;;;;;;4.93;2.35;;;;;;;1.82;76.35;92995.88;5109560;28;20023;-46
2021/01/09 03:08:45;;;;;;;5.03;2.60;;;;;;;1.89;76.67;93009.69;5110601;28;20024;-45
2021/01/09 03:11:10;;;;;;;1.90;1.00;;;;;;;1.84;76.49;93017.88;5110112;28;20039;-45
2021/01/09 03:13:36;;;;;;;0.95;0.68;;;;;;;1.76;76.40;93019.63;5109449;28;20035;-46
2021/01/09 03:16:01;;;;;;;0.60;0.60;;;;;;;1.80;76.55;93009.25;5109703;28;20106;-45
2021/01/09 03:18:27;;;;;;;0.70;0.70;;;;;;;1.66;76.89;93023.91;5112547;28;20024;-43
2021/01/09 03:20:52;;;;;;;1.85;0.90;;;;;;;1.74;77.07;93014.72;5113346;28;20106;-45
2021/01/09 03:23:17;;;;;;;3.25;1.98;;;;;;;1.72;76.64;93011.75;5113234;28;20110;-44
2021/01/09 03:25:43;;;;;;;1.95;1.70;;;;;;;1.69;76.49;93010.03;5113193;28;20102;-45
2021/01/09 03:28:08;;;;;;;1.10;0.98;;;;;;;1.70;77.73;93008.03;5113221;28;20041;-44
2021/01/09 03:30:34;;;;;;;0.82;0.65;;;;;;;1.76;77.41;93000.59;5113051;28;20031;-45
2021/01/09 03:32:59;;;;;;;1.00;0.80;;;;;;;1.89;76.44;93006.22;5112942;28;20019;-47
2021/01/09 03:35:26;;;;;;;0.88;0.88;;;;;;;1.83;76.72;93002.78;5113213;28;20114;-48
2021/01/09 03:37:52;;;;;;;1.30;1.20;;;;;;;1.84;76.53;93005.00;5112898;28;20015;-45
2021/01/09 03:40:17;;;;;;;1.27;1.17;;;;;;;1.84;76.69;93007.00;5113054;28;20038;-44
2021/01/09 03:42:43;;;;;;;1.15;0.90;;;;;;;1.80;76.56;92984.75;5112995;28;20415;-44
2021/01/09 03:45:09;;;;;;;1.10;1.00;;;;;;;1.81;76.64;92999.84;5112919;28;20077;-45
2021/01/09 03:47:34;;;;;;;3.15;1.73;;;;;;;1.64;77.48;93001.91;5112839;28;20027;-45
2021/01/09 03:50:00;;;;;;;2.25;1.25;;;;;;;1.62;77.59;93018.00;5112703;28;20028;-47
2021/01/09 03:52:25;;;;;;;2.35;1.23;;;;;;;1.72;77.89;93008.28;5112856;28;20567;-44
2021/01/09 03:54:51;;;;;;;3.13;1.27;;;;;;;1.78;77.68;93028.03;5112935;28;20027;-46
2021/01/09 03:57:16;;;;;;;2.50;2.10;;;;;;;1.79;77.06;93024.84;5112741;28;20043;-45
2021/01/09 03:59:42;;;;;;;2.55;1.35;;;;;;;1.87;77.10;93016.88;5112470;28;20019;-44
2021/01/09 04:02:07;;;;;;;3.17;2.30;;;;;;;1.88;76.65;93018.34;5112881;28;20472;-45
2021/01/09 04:04:33;;;;;;;3.75;2.75;;;;;;;1.84;76.56;93026.06;5113064;28;20027;-46
2021/01/09 04:06:58;;;;;;;13.32;3.90;;;;;;;1.49;77.04;93000.22;5112908;28;20027;-44
2021/01/09 04:09:23;;;;;;;11.63;4.53;;;;;;;1.58;77.31;93001.19;5113132;28;20038;-45
2021/01/09 04:11:49;;;;;;;4.18;2.97;;;;;;;1.64;76.94;93024.41;5112637;28;20112;-48
2021/01/09 04:14:14;;;;;;;12.38;4.57;;;;;;;1.88;76.03;93042.84;5112299;28;20039;-46
2021/01/09 04:16:40;;;;;;;9.00;3.95;;;;;;;1.91;76.66;93048.03;5112274;27;20486;-45
2021/01/09 04:19:05;;;;;;;10.27;3.92;;;;;;;1.87;76.67;93046.81;5112170;28;20030;-46
2021/01/09 04:21:31;;;;;;;8.57;2.88;;;;;;;1.73;76.25;93042.44;5112133;28;20069;-47
2021/01/09 04:23:56;;;;;;;9.88;4.55;;;;;;;1.90;76.44;93054.72;5111470;28;20081;-45
2021/01/09 04:26:21;;;;;;;9.30;4.05;;;;;;;1.88;76.70;93057.22;5111288;28;20495;-45
2021/01/09 04:28:47;;;;;;;5.05;2.80;;;;;;;1.78;76.01;93041.66;5111933;28;20411;-46
2021/01/09 04:31:15;;;;;;;9.32;4.97;;;;;;;1.90;75.37;93062.16;5112580;28;20465;-45
2021/01/09 04:33:41;;;;;;;7.00;3.47;;;;;;;1.91;75.79;93066.34;5112525;28;20039;-46
2021/01/09 04:36:07;;;;;;;5.60;2.70;;;;;;;1.92;75.67;93063.13;5111961;28;20035;-44
2021/01/09 04:38:32;;;;;;;1.40;1.10;;;;;;;1.71;75.47;93056.53;5112053;28;20577;-48
2021/01/09 04:40:58;;;;;;;5.82;2.58;;;;;;;1.91;75.22;93066.34;5111929;28;20020;-45
2021/01/09 04:43:23;;;;;;;1.00;0.90;;;;;;;1.87;75.45;93079.47;5111710;28;20110;-47
2021/01/09 04:45:49;;;;;;;3.75;1.83;;;;;;;1.84;74.82;93085.94;5111694;28;20019;-46
2021/01/09 04:48:16;;;;;;;9.90;2.35;;;;;;;1.72;75.29;93092.66;5110379;28;20496;-43
2021/01/09 04:50:42;;;;;;;2.10;1.48;;;;;;;1.78;75.29;93077.03;5112106;28;20454;-44
2021/01/09 04:53:08;;;;;;;1.88;1.30;;;;;;;1.75;74.95;93076.06;5112138;28;20042;-48
2021/01/09 04:55:36;;;;;;;2.75;1.50;;;;;;;1.67;75.39;93080.53;5112133;28;20023;-45
2021/01/09 04:58:02;;;;;;;7.57;3.37;;;;;;;1.73;76.09;93080.53;5110917;28;20488;-45
2021/01/09 05:00:28;;;;;;;11.57;5.50;;;;;;;1.68;76.58;93084.75;5112016;28;20065;-45
2021/01/09 05:02:53;;;;;;;5.60;3.05;;;;;;;1.76;76.15;93091.16;5112107;28;20020;-44
2021/01/09 05:05:19;;;;;;;5.85;3.13;;;;;;;1.76;75.48;93093.88;5112029;28;20126;-45
2021/01/09 05:07:44;;;;;;;2.17;1.70;;;;;;;1.82;76.08;93105.47;5104222;28;20107;-45
2021/01/09 05:10:11;;;;;;;7.95;3.60;;;;;;;1.79;75.57;93106.47;5092388;28;20456;-47
2021/01/09 05:12:40;;;;;;;3.88;2.13;;;;;;;1.70;75.63;93100.56;5091690;28;20055;-44
2021/01/09 05:15:06;;;;;;;8.80;4.72;;;;;;;1.71;75.80;93102.06;5093831;28;20496;-44
2021/01/09 05:17:35;;;;;;;2.80;2.08;;;;;;;1.62;75.57;93100.34;5111392;28;20051;-46
2021/01/09 05:20:01;;;;;;;2.15;1.40;;;;;;;1.66;76.30;93103.56;5108314;28;20511;-45
2021/01/09 05:22:27;;;;;;;2.38;1.63;;;;;;;1.65;76.62;93109.47;5107830;28;20059;-46
2021/01/09 05:24:53;;;;;;;2.85;1.38;;;;;;;1.58;76.42;93086.28;5110390;28;20047;-45
2021/01/09 05:27:20;;;;;;;4.65;2.63;;;;;;;1.51;76.07;93071.22;5111300;28;20450;-45
2021/01/09 05:29:55;;;;;;;9.23;4.70;;;;;;;1.56;76.79;93099.63;5110028;28;20424;-46
2021/01/09 05:32:21;;;;;;;22.05;7.65;;;;;;;1.51;76.94;93101.13;5111960;28;20051;-45
2021/01/09 05:34:51;;;;;;;12.00;5.30;;;;;;;1.60;76.43;93113.72;5110298;28;20032;-48
2021/01/09 05:37:22;;;;;;;4.22;2.28;;;;;;;1.65;76.27;93123.84;5111751;28;20012;-46
2021/01/09 05:39:49;;;;;;;2.72;1.70;;;;;;;1.49;76.64;93138.22;5106337;28;20111;-45
2021/01/09 05:42:15;;;;;;;3.63;2.05;;;;;;;1.44;76.74;93134.28;5108382;28;20051;-49
2021/01/09 05:44:41;;;;;;;6.07;2.95;;;;;;;1.49;76.53;93138.94;5102857;28;20020;-50
2021/01/09 05:47:06;;;;;;;2.63;2.13;;;;;;;1.44;76.65;93138.97;5100667;28;20106;-50
2021/01/09 05:49:32;;;;;;;1.90;1.63;;;;;;;1.42;76.90;93142.19;5099296;28;20469;-49
2021/01/09 05:51:57;;;;;;;2.85;1.58;;;;;;;1.31;76.26;93138.75;5101912;28;20011;-49
2021/01/09 05:54:36;;;;;;;3.05;1.83;;;;;;;1.33;77.45;93161.50;5098807;28;20031;-53
2021/01/09 05:57:02;;;;;;;5.43;2.80;;;;;;;1.43;75.81;93168.16;5099649;28;20404;-47
2021/01/09 05:59:31;;;;;;;5.85;3.20;;;;;;;1.40;76.40;93165.69;5101411;28;20124;-47
2021/01/09 06:01:58;;;;;;;6.22;2.72;;;;;;;1.28;76.71;93164.94;5100111;28;20015;-50
2021/01/09 06:04:31;;;;;;;3.00;2.00;;;;;;;1.32;76.64;93179.03;5100208;28;20035;-46
2021/01/09 06:07:17;;;;;;;4.45;2.20;;;;;;;1.36;76.86;93182.28;5098515;28;20523;-49
2021/01/09 06:10:11;;;;;;;1.55;0.68;;;;;;;1.39;76.47;93175.81;5098351;28;20536;-45
2021/01/09 06:12:38;;;;;;;1.90;1.40;;;;;;;1.47;76.54;93182.25;5098976;28;20117;-44
2021/01/09 06:15:04;;;;;;;1.35;1.25;;;;;;;1.51;76.92;93180.03;5099734;28;20016;-47
2021/01/09 06:17:32;;;;;;;7.25;3.35;;;;;;;1.51;76.92;93179.28;5100603;28;20024;-46
2021/01/09 06:19:58;;;;;;;3.63;2.45;;;;;;;1.64;75.72;93184.19;5100262;28;20028;-45
2021/01/09 06:22:23;;;;;;;5.47;3.80;;;;;;;1.59;76.17;93174.81;5103767;28;20031;-45
2021/01/09 06:24:49;;;;;;;7.13;3.90;;;;;;;1.63;76.13;93175.28;5103748;28;20108;-46
2021/01/09 06:27:22;;;;;;;8.60;3.67;;;;;;;1.62;75.46;93165.66;5102842;28;20116;-46
2021/01/09 06:29:48;;;;;;;5.18;2.75;;;;;;;1.71;75.36;93170.09;5103313;28;20085;-45
2021/01/09 06:32:18;;;;;;;3.15;2.63;;;;;;;1.64;75.88;93160.47;5104343;28;20016;-46
2021/01/09 06:34:44;;;;;;;3.42;1.83;;;;;;;1.72;75.68;93180.47;5104993;28;20016;-47
2021/01/09 06:37:09;;;;;;;1.45;1.20;;;;;;;1.72;75.83;93188.63;5102271;28;20096;-48
2021/01/09 06:39:37;;;;;;;0.93;0.80;;;;;;;1.84;75.23;93186.66;5104099;28;20100;-45
2021/01/09 06:42:06;;;;;;;2.45;1.80;;;;;;;1.73;74.82;93195.56;5104064;28;20013;-44
2021/01/09 06:44:33;;;;;;;13.02;5.38;;;;;;;1.84;74.64;93194.81;5103374;28;20032;-46
2021/01/09 06:46:58;;;;;;;15.98;7.85;;;;;;;1.58;74.64;93186.19;5102054;28;20106;-44
2021/01/09 06:49:28;;;;;;;20.30;9.10;;;;;;;1.73;75.22;93211.91;5104669;28;20148;-45
2021/01/09 06:52:02;;;;;;;6.95;3.80;;;;;;;1.72;75.55;93210.41;5102014;28;20018;-45
2021/01/09 06:54:49;;;;;;;6.30;2.63;;;;;;;1.73;75.79;93236.41;5104923;28;20419;-45
2021/01/09 06:57:19;;;;;;;2.88;2.00;;;;;;;1.83;75.43;93251.22;5093854;28;20485;-48
2021/01/09 06:59:49;;;;;;;4.53;2.47;;;;;;;1.73;75.59;93254.69;5093974;28;20098;-44
2021/01/09 07:02:19;;;;;;;4.43;2.58;;;;;;;1.86;75.93;93254.94;5110105;28;20544;-47
2021/01/09 07:04:58;;;;;;;10.45;2.97;;;;;;;1.90;75.21;93250.72;5114013;28;20487;-49
2021/01/09 07:07:29;;;;;;;6.50;2.60;;;;;;;2.07;74.10;93248.72;5114192;28;20031;-49
2021/01/09 07:10:24;;;;;;;3.72;2.17;;;;;;;2.20;73.87;93257.09;5114010;28;20042;-47
2021/01/09 07:12:54;;;;;;;1.65;1.42;;;;;;;2.28;73.65;93262.75;5110256;28;20031;-60
2021/01/09 07:15:19;;;;;;;;;;;;;;;2.28;73.18;93276.38;5114530;28;20035;-58
2021/01/09 07:17:49;;;;;;;3.45;1.90;;;;;;;2.22;73.95;93287.28;5114016;28;20490;-58
2021/01/09 07:20:18;;;;;;;2.47;1.23;;;;;;;2.27;73.86;93291.97;5113997;28;20015;-57
2021/01/09 07:22:46;;;;;;;1.08;0.98;;;;;;;2.21;73.39;93295.94;5113695;28;20020;-55
2021/01/09 07:25:11;;;;;;;3.35;1.50;;;;;;;2.15;74.43;93303.38;5113874;28;20032;-51
2021/01/09 07:27:46;;;;;;;3.35;1.63;;;;;;;2.18;73.38;93305.13;5113767;28;20028;-57
2021/01/09 07:30:16;;;;;;;7.70;2.50;;;;;;;2.20;73.81;93313.53;5112543;28;20027;-57
2021/01/09 07:32:47;;;;;;;2.50;1.40;;;;;;;2.29;73.30;93319.47;5113304;28;20035;-50
2021/01/09 07:35:19;;;;;;;2.70;1.90;;;;;;;2.34;73.97;93323.41;5113555;28;20034;-49
2021/01/09 07:37:45;;;;;;;2.22;1.60;;;;;;;2.42;73.19;93320.91;5113588;28;20495;-52
2021/01/09 07:40:13;;;;;;;3.40;2.75;;;;;;;2.35;73.55;93327.63;5098254;28;20035;-45
2021/01/09 07:42:40;;;;;;;3.75;2.92;;;;;;;2.45;73.28;93320.66;5093256;28;20020;-46
2021/01/09 07:45:07;;;;;;;3.58;2.60;;;;;;;2.56;73.90;93331.53;5093021;28;20082;-48
2021/01/09 07:47:38;;;;;;;12.20;6.60;;;;;;;2.54;73.84;93346.88;5093057;28;20047;-48
2021/01/09 07:50:04;;;;;;;10.25;5.35;;;;;;;2.59;73.62;93352.34;5090339;28;20024;-46
2021/01/09 07:52:32;;;;;;;5.80;3.78;;;;;;;2.65;73.68;93355.78;5092736;28;20089;-46
2021/01/09 07:54:57;;;;;;;4.20;2.55;;;;;;;2.82;72.87;93369.34;5092834;28;20406;-51
2021/01/09 07:57:27;;;;;;;2.72;1.92;;;;;;;2.94;73.09;93368.09;5092907;28;20106;-47
2021/01/09 07:59:55;;;;;;;;;;;;;;;2.89;72.42;93372.31;5093079;28;20032;-47
2021/01/09 08:02:27;;;;;;;7.88;3.25;;;;;;;2.88;72.62;93376.28;5092798;28;20384;-46
2021/01/09 08:05:12;;;;;;;9.25;3.75;;;;;;;2.75;72.84;93373.34;5092772;28;20043;-51
2021/01/09 08:07:58;;;;;;;5.78;3.92;;;;;;;2.60;73.28;93383.78;5092758;28;20028;-50
2021/01/09 08:10:24;;;;;;;4.57;2.80;;;;;;;2.67;73.04;93375.09;5092120;28;20032;-51
2021/01/09 08:13:08;;;;;;;6.22;3.83;;;;;;;2.74;72.37;93379.31;5092522;28;20027;-53
2021/01/09 08:15:35;;;;;;;4.88;3.58;;;;;;;2.79;72.86;93382.03;5092692;28;20027;-52
2021/01/09 08:18:03;;;;;;;6.03;2.65;;;;;;;2.86;72.52;93361.66;5092509;28;20054;-49
2021/01/09 08:20:28;;;;;;;4.10;1.92;;;;;;;3.04;72.08;93378.22;5092373;28;20042;-52
2021/01/09 08:22:56;;;;;;;2.08;1.30;;;;;;;3.17;71.33;93383.13;5092489;28;20020;-52
2021/01/09 08:25:28;;;;;;;6.00;3.70;;;;;;;3.27;71.03;93389.75;5092392;28;20028;-51
2021/01/09 08:27:58;;;;;;;18.35;8.20;;;;;;;3.37;70.88;93387.50;5091112;28;20107;-51
2021/01/09 08:30:34;;;;;;;25.88;12.60;;;;;;;3.52;71.13;93385.94;5092346;28;20020;-46
2021/01/09 08:33:07;;;;;;;7.97;4.63;;;;;;;3.54;70.49;93382.69;5092088;28;20020;-56
2021/01/09 08:35:34;;;;;;;3.40;1.80;;;;;;;3.74;69.23;93382.34;5092111;28;20054;-51
2021/01/09 08:38:00;;;;;;;1.73;1.60;;;;;;;3.66;69.62;93389.59;5092035;28;20066;-50
2021/01/09 08:40:26;;;;;;;2.42;1.80;;;;;;;3.52;70.22;93385.94;5090897;28;20024;-50
2021/01/09 08:42:59;;;;;;;1.02;0.98;;;;;;;3.63;70.21;93396.06;5091447;28;20078;-49
2021/01/09 08:46:03;;;;;;;2.58;1.77;;;;;;;3.64;69.74;93398.25;5091892;28;20024;-49
2021/01/09 08:48:30;;;;;;;2.30;1.33;;;;;;;3.79;69.46;93390.47;5049714;28;20029;-47
2021/01/09 08:51:05;;;;;;;1.77;1.30;;;;;;;3.95;68.58;93383.44;5049487;28;20087;-46
2021/01/09 08:53:50;;;;;;;2.35;1.60;;;;;;;3.97;68.16;93393.84;5072304;28;20040;-46
2021/01/09 08:56:16;;;;;;;0.70;0.70;;;;;;;3.84;68.02;93388.97;5090553;28;20020;-48
2021/01/09 08:58:42;;;;;;;1.65;1.10;;;;;;;3.78;68.75;93397.19;5090251;28;20099;-48
2021/01/09 09:01:11;;;;;;;13.15;5.43;;;;;;;3.70;68.72;93385.31;5103717;28;20583;-48
2021/01/09 09:03:42;;;;;;;5.75;3.72;;;;;;;3.79;68.69;93387.75;5103156;28;20020;-46
2021/01/09 09:06:08;;;;;;;13.57;6.47;;;;;;;3.66;69.16;93381.41;5097463;28;20501;-48
2021/01/09 09:08:35;;;;;;;11.88;6.10;;;;;;;3.74;69.50;93387.78;5089259;28;20035;-46
2021/01/09 09:11:02;;;;;;;6.60;3.25;;;;;;;3.81;69.03;93384.53;5109891;28;20065;-46
2021/01/09 09:13:28;;;;;;;9.85;4.78;;;;;;;3.87;69.89;93382.50;5111197;28;20138;-45
2021/01/09 09:15:54;;;;;;;6.35;3.65;;;;;;;3.59;70.51;93379.94;5110667;28;20767;-49
2021/01/09 09:18:20;;;;;;;3.08;2.38;;;;;;;3.67;68.75;93385.59;5110537;28;20031;-45
2021/01/09 09:20:50;;;;;;;4.90;3.95;;;;;;;3.64;69.80;93370.97;5110728;28;20033;-44
2021/01/09 09:23:17;;;;;;;3.40;2.13;;;;;;;3.81;69.04;93385.25;5110844;28;20055;-50
2021/01/09 09:25:43;;;;;;;2.05;1.35;;;;;;;3.81;69.48;93385.25;5110827;28;20027;-51
2021/01/09 09:28:08;;;;;;;3.65;2.13;;;;;;;3.81;69.63;93381.81;5110734;28;20023;-52
2021/01/09 09:30:34;;;;;;;1.58;1.45;;;;;;;3.80;69.43;93381.06;5100804;28;20039;-52
2021/01/09 09:33:13;;;;;;;3.75;2.70;;;;;;;3.85;69.01;93361.13;5107666;28;20024;-46
2021/01/09 09:35:39;;;;;;;;;;;;;;;4.01;68.80;93364.25;5111087;28;20019;-46
2021/01/09 09:38:04;;;;;;;6.05;3.03;;;;;;;3.98;69.04;93368.75;5110480;28;19907;-45
2021/01/09 09:40:31;;;;;;;5.00;3.50;;;;;;;4.06;69.43;93366.97;5110846;28;20015;-48
2021/01/09 09:43:11;;;;;;;3.33;2.15;;;;;;;4.21;68.45;93353.66;5109137;28;20027;-45
2021/01/09 09:45:37;;;;;;;2.85;2.17;;;;;;;4.13;68.11;93343.81;5110392;28;20042;-45
2021/01/09 09:48:02;;;;;;;2.08;1.88;;;;;;;3.93;68.55;93361.34;5110576;28;20488;-46
2021/01/09 09:50:28;;;;;;;2.75;1.88;;;;;;;4.02;68.41;93363.75;5110179;28;20035;-48
2021/01/09 09:52:58;;;;;;;4.35;2.45;;;;;;;4.03;68.59;93356.31;5110550;28;20477;-49
2021/01/09 09:55:24;;;;;;;2.95;2.45;;;;;;;4.18;68.85;93349.22;5112640;28;20047;-47
2021/01/09 09:58:09;;;;;;;4.43;2.15;;;;;;;4.17;68.97;93360.66;5114045;28;20415;-46
2021/01/09 10:00:41;;;;;;;4.75;2.75;;;;;;;4.05;67.80;93365.47;5112012;28;20544;-57
2021/01/09 10:03:07;;;;;;;10.48;5.10;;;;;;;3.74;69.97;93344.09;5113702;28;20063;-54
2021/01/09 10:05:32;;;;;;;5.80;3.70;;;;;;;3.81;69.86;93360.66;5113830;28;20043;-54
2021/01/09 10:08:15;;;;;;;7.78;3.92;;;;;;;4.04;69.66;93368.72;5113762;28;20496;-51
2021/01/09 10:10:42;;;;;;;3.97;2.60;;;;;;;4.07;68.54;93368.44;5112603;28;20039;-55
2021/01/09 10:13:07;;;;;;;6.18;3.05;;;;;;;3.94;68.86;93362.09;5114008;27;20447;-46
2021/01/09 10:15:33;;;;;;;4.72;3.33;;;;;;;3.88;69.61;93366.84;5114035;28;20024;-45
2021/01/09 10:18:00;;;;;;;12.50;4.30;;;;;;;3.81;70.00;93368.88;5104314;28;20062;-49
2021/01/09 10:20:26;;;;;;;10.07;5.22;;;;;;;3.82;69.45;93359.44;5104681;28;20036;-60
2021/01/09 10:22:51;;;;;;;4.88;3.08;;;;;;;3.71;69.85;93351.31;5098518;28;20419;-52
2021/01/09 10:25:17;;;;;;;5.72;2.90;;;;;;;3.78;68.84;93360.97;5093477;28;20032;-51
2021/01/09 10:27:43;;;;;;;4.60;2.72;;;;;;;3.83;69.34;93344.53;5093189;28;20111;-48
2021/01/09 10:30:09;;;;;;;8.05;4.45;;;;;;;3.96;68.71;93343.94;5093264;28;20027;-51
2021/01/09 10:32:34;;;;;;;10.13;6.28;;;;;;;4.00;69.56;93333.50;5095838;28;20051;-46
2021/01/09 10:35:00;;;;;;;7.70;4.53;;;;;;;3.92;69.99;93340.00;5098428;28;20031;-46
2021/01/09 10:37:25;;;;;;;6.18;3.00;;;;;;;4.16;69.44;93338.06;5093625;28;20085;-49
2021/01/09 10:39:51;;;;;;;3.30;2.13;;;;;;;4.35;69.20;93344.34;5101523;28;20077;-47
2021/01/09 10:42:16;;;;;;;3.15;2.03;;;;;;;4.25;69.62;93328.78;5102647;28;20032;-48
2021/01/09 10:44:42;;;;;;;3.25;1.90;;;;;;;4.50;68.17;93355.63;5101041;28;20050;-51
2021/01/09 10:47:07;;;;;;;3.55;2.38;;;;;;;4.67;67.66;93360.94;5103065;28;20028;-46
2021/01/09 10:49:33;;;;;;;5.22;3.25;;;;;;;4.78;68.48;93357.34;5101817;28;20028;-51
2021/01/09 10:51:59;;;;;;;7.50;3.75;;;;;;;4.71;68.14;93346.97;5101455;28;20019;-46
2021/01/09 10:54:24;;;;;;;6.20;3.50;;;;;;;4.59;66.71;93349.81;5101162;28;20032;-46
2021/01/09 10:56:49;;;;;;;2.30;1.98;;;;;;;4.47;66.58;93356.66;5102852;28;20088;-52
2021/01/09 10:59:15;;;;;;;2.88;2.17;;;;;;;4.44;68.11;93354.94;5101561;28;20024;-51
2021/01/09 11:01:40;;;;;;;6.18;3.33;;;;;;;4.37;67.56;93344.59;5101001;27;20058;-49
2021/01/09 11:04:06;;;;;;;6.57;3.95;;;;;;;4.29;68.44;93349.13;5102598;28;20023;-47
2021/01/09 11:06:31;;;;;;;9.43;4.15;;;;;;;4.28;68.16;93336.72;5100047;28;20035;-48
2021/01/09 11:08:57;;;;;;;6.15;4.03;;;;;;;4.09;68.89;93344.09;5101600;28;20023;-47
2021/01/09 11:11:23;;;;;;;3.90;2.53;;;;;;;4.17;69.49;93350.47;5102351;28;20051;-47
2021/01/09 11:13:49;;;;;;;3.95;2.90;;;;;;;4.02;69.96;93354.81;5102793;28;20062;-48
2021/01/09 11:16:21;;;;;;;3.85;2.83;;;;;;;3.73;70.91;93362.47;5101545;28;20508;-46
2021/01/09 11:18:47;;;;;;;3.83;2.50;;;;;;;3.88;70.42;93370.31;5100597;28;20027;-48
2021/01/09 11:21:14;;;;;;;4.97;3.63;;;;;;;3.81;71.87;93370.88;5101212;28;20102;-49
2021/01/09 11:23:42;;;;;;;9.20;4.43;;;;;;;3.73;70.02;93373.41;5103255;28;20499;-50
2021/01/09 11:26:07;;;;;;;4.03;3.00;;;;;;;3.75;71.71;93375.59;5101475;28;20032;-49
2021/01/09 11:28:32;;;;;;;2.85;2.15;;;;;;;3.74;71.50;93382.34;5096517;28;20042;-51
2021/01/09 11:30:58;;;;;;;5.25;3.08;;;;;;;3.81;70.81;93384.53;5100748;28;20095;-47
2021/01/09 11:33:24;;;;;;;8.00;3.75;;;;;;;3.60;71.21;93392.34;5100809;28;20023;-47
2021/01/09 11:35:49;;;;;;;6.75;3.90;;;;;;;3.59;71.01;93390.88;5103134;28;20020;-47
2021/01/09 11:38:15;;;;;;;4.45;3.42;;;;;;;3.56;71.98;93393.84;5100877;28;20046;-43
2021/01/09 11:40:40;;;;;;;5.75;3.92;;;;;;;3.54;71.26;93401.81;5101952;28;20027;-56
2021/01/09 11:43:06;;;;;;;5.75;3.72;;;;;;;3.47;71.32;93394.13;5102956;28;20179;-54